sensor_id;sensor_type;location;lat;lon;timestamp;pressure;altitude;pressure_sealevel;temperature;humidity
77979;BME280;67169;50.268;8.694;2023-08-17T00:01:22;99883.69;;;17.11;100.00
77979;BME280;67169;50.268;8.694;2023-08-17T00:03:48;99893.97;;;17.05;100.00
77979;BME280;67169;50.268;8.694;2023-08-17T00:06:15;99905.81;;;17.04;100.00
77979;BME280;67169;50.268;8.694;2023-08-17T00:08:41;99873.28;;;16.89;100.00
77979;BME280;67169;50.268;8.694;2023-08-17T00:11:08;99889.38;;;16.92;100.00
77979;BME280;67169;50.268;8.694;2023-08-17T00:13:35;99892.97;;;16.92;100.00
77979;BME280;67169;50.268;8.694;2023-08-17T00:16:02;99880.75;;;16.85;100.00
77979;BME280;67169;50.268;8.694;2023-08-17T00:18:30;99881.91;;;16.81;100.00
77979;BME280;67169;50.268;8.694;2023-08-17T00:20:57;99878.50;;;16.77;100.00
77979;BME280;67169;50.268;8.694;2023-08-17T00:23:23;99860.31;;;16.64;100.00
77979;BME280;67169;50.268;8.694;2023-08-17T00:25:50;99870.69;;;16.71;100.00
77979;BME280;67169;50.268;8.694;2023-08-17T00:28:17;99869.25;;;16.66;100.00
77979;BME280;67169;50.268;8.694;2023-08-17T00:30:43;99851.78;;;16.55;100.00
77979;BME280;67169;50.268;8.694;2023-08-17T00:33:10;99866.31;;;16.54;100.00
77979;BME280;67169;50.268;8.694;2023-08-17T00:35:38;99871.22;;;16.48;100.00
77979;BME280;67169;50.268;8.694;2023-08-17T00:38:05;99852.00;;;16.36;100.00
77979;BME280;67169;50.268;8.694;2023-08-17T00:40:32;99858.94;;;16.42;100.00
77979;BME280;67169;50.268;8.694;2023-08-17T00:42:58;99857.13;;;16.27;100.00
77979;BME280;67169;50.268;8.694;2023-08-17T00:45:26;99859.94;;;16.25;100.00
77979;BME280;67169;50.268;8.694;2023-08-17T00:47:54;99867.94;;;16.12;100.00
77979;BME280;67169;50.268;8.694;2023-08-17T00:50:22;99868.22;;;16.08;100.00
77979;BME280;67169;50.268;8.694;2023-08-17T00:52:51;99869.88;;;16.10;100.00
77979;BME280;67169;50.268;8.694;2023-08-17T00:55:18;99866.44;;;16.07;100.00
77979;BME280;67169;50.268;8.694;2023-08-17T00:57:45;99871.38;;;16.00;100.00
77979;BME280;67169;50.268;8.694;2023-08-17T01:00:12;99867.69;;;16.01;100.00
77979;BME280;67169;50.268;8.694;2023-08-17T01:02:40;99872.31;;;15.99;100.00
77979;BME280;67169;50.268;8.694;2023-08-17T01:05:08;99868.84;;;15.97;100.00
77979;BME280;67169;50.268;8.694;2023-08-17T01:07:34;99802.53;;;15.55;100.00
77979;BME280;67169;50.268;8.694;2023-08-17T01:10:05;99862.81;;;15.92;100.00
77979;BME280;67169;50.268;8.694;2023-08-17T01:12:38;99869.91;;;15.95;100.00
77979;BME280;67169;50.268;8.694;2023-08-17T01:15:11;99882.25;;;16.00;100.00
77979;BME280;67169;50.268;8.694;2023-08-17T01:17:43;99888.44;;;16.02;100.00
77979;BME280;67169;50.268;8.694;2023-08-17T01:20:13;99886.34;;;16.07;100.00
77979;BME280;67169;50.268;8.694;2023-08-17T01:22:42;99874.34;;;16.11;100.00
77979;BME280;67169;50.268;8.694;2023-08-17T01:25:10;99881.66;;;16.09;100.00
77979;BME280;67169;50.268;8.694;2023-08-17T01:27:39;99853.16;;;16.02;100.00
77979;BME280;67169;50.268;8.694;2023-08-17T01:30:07;99859.91;;;16.11;100.00
77979;BME280;67169;50.268;8.694;2023-08-17T01:32:37;99858.91;;;16.12;100.00
77979;BME280;67169;50.268;8.694;2023-08-17T01:35:09;99847.56;;;16.05;100.00
77979;BME280;67169;50.268;8.694;2023-08-17T01:37:38;99844.16;;;16.02;100.00
77979;BME280;67169;50.268;8.694;2023-08-17T01:40:09;99856.56;;;16.06;100.00
77979;BME280;67169;50.268;8.694;2023-08-17T01:42:39;99844.69;;;15.93;100.00
77979;BME280;67169;50.268;8.694;2023-08-17T01:45:06;99872.94;;;16.04;100.00
77979;BME280;67169;50.268;8.694;2023-08-17T01:47:33;99859.75;;;15.98;100.00
77979;BME280;67169;50.268;8.694;2023-08-17T01:50:01;99867.78;;;16.00;100.00
77979;BME280;67169;50.268;8.694;2023-08-17T01:52:28;99866.03;;;15.99;100.00
77979;BME280;67169;50.268;8.694;2023-08-17T01:54:55;99850.91;;;15.95;100.00
77979;BME280;67169;50.268;8.694;2023-08-17T01:57:22;99852.50;;;15.83;100.00
77979;BME280;67169;50.268;8.694;2023-08-17T01:59:49;99844.56;;;15.80;100.00
77979;BME280;67169;50.268;8.694;2023-08-17T02:02:16;99856.28;;;15.80;100.00
77979;BME280;67169;50.268;8.694;2023-08-17T02:04:42;99845.88;;;15.73;100.00
77979;BME280;67169;50.268;8.694;2023-08-17T02:07:09;99842.53;;;15.68;100.00
77979;BME280;67169;50.268;8.694;2023-08-17T02:09:36;99844.53;;;15.64;100.00
77979;BME280;67169;50.268;8.694;2023-08-17T02:12:03;99833.44;;;15.53;100.00
77979;BME280;67169;50.268;8.694;2023-08-17T02:14:31;99838.69;;;15.56;100.00
77979;BME280;67169;50.268;8.694;2023-08-17T02:16:57;99843.19;;;15.55;100.00
77979;BME280;67169;50.268;8.694;2023-08-17T02:19:24;99850.56;;;15.53;100.00
77979;BME280;67169;50.268;8.694;2023-08-17T02:21:51;99851.53;;;15.52;100.00
77979;BME280;67169;50.268;8.694;2023-08-17T02:24:18;99854.25;;;15.52;100.00
77979;BME280;67169;50.268;8.694;2023-08-17T02:26:44;99847.44;;;15.45;100.00
77979;BME280;67169;50.268;8.694;2023-08-17T02:29:11;99854.66;;;15.44;100.00
77979;BME280;67169;50.268;8.694;2023-08-17T02:31:39;99847.78;;;15.39;100.00
77979;BME280;67169;50.268;8.694;2023-08-17T02:34:05;99831.84;;;15.33;100.00
77979;BME280;67169;50.268;8.694;2023-08-17T02:36:33;99849.34;;;15.43;100.00
77979;BME280;67169;50.268;8.694;2023-08-17T02:38:59;99835.69;;;15.44;100.00
77979;BME280;67169;50.268;8.694;2023-08-17T02:41:26;99841.47;;;15.38;100.00
77979;BME280;67169;50.268;8.694;2023-08-17T02:43:52;99844.59;;;15.31;100.00
77979;BME280;67169;50.268;8.694;2023-08-17T02:46:19;99849.25;;;15.29;100.00
77979;BME280;67169;50.268;8.694;2023-08-17T02:48:47;99842.25;;;15.25;100.00
77979;BME280;67169;50.268;8.694;2023-08-17T02:51:13;99840.47;;;15.24;100.00
77979;BME280;67169;50.268;8.694;2023-08-17T02:53:40;99819.94;;;15.19;100.00
77979;BME280;67169;50.268;8.694;2023-08-17T02:56:07;99835.22;;;15.20;100.00
77979;BME280;67169;50.268;8.694;2023-08-17T02:58:37;99827.09;;;15.20;100.00
77979;BME280;67169;50.268;8.694;2023-08-17T03:01:05;99819.94;;;15.19;100.00
77979;BME280;67169;50.268;8.694;2023-08-17T03:03:32;99820.28;;;15.13;100.00
77979;BME280;67169;50.268;8.694;2023-08-17T03:05:59;99816.16;;;15.06;100.00
77979;BME280;67169;50.268;8.694;2023-08-17T03:08:26;99834.09;;;15.09;100.00
77979;BME280;67169;50.268;8.694;2023-08-17T03:10:53;99829.56;;;15.09;100.00
77979;BME280;67169;50.268;8.694;2023-08-17T03:13:19;99826.94;;;15.08;100.00
77979;BME280;67169;50.268;8.694;2023-08-17T03:15:46;99818.66;;;15.11;100.00
77979;BME280;67169;50.268;8.694;2023-08-17T03:18:12;99804.03;;;15.13;100.00
77979;BME280;67169;50.268;8.694;2023-08-17T03:20:39;99807.59;;;15.14;100.00
77979;BME280;67169;50.268;8.694;2023-08-17T03:23:07;99816.53;;;15.16;100.00
77979;BME280;67169;50.268;8.694;2023-08-17T03:25:34;99803.69;;;15.19;100.00
77979;BME280;67169;50.268;8.694;2023-08-17T03:28:00;99801.94;;;15.18;100.00
77979;BME280;67169;50.268;8.694;2023-08-17T03:30:27;99804.56;;;15.20;100.00
77979;BME280;67169;50.268;8.694;2023-08-17T03:32:53;99808.41;;;15.16;100.00
77979;BME280;67169;50.268;8.694;2023-08-17T03:35:20;99820.28;;;15.13;100.00
77979;BME280;67169;50.268;8.694;2023-08-17T03:37:47;99827.63;;;15.11;100.00
77979;BME280;67169;50.268;8.694;2023-08-17T03:40:15;99829.22;;;15.15;100.00
77979;BME280;67169;50.268;8.694;2023-08-17T03:42:41;99814.25;;;15.08;100.00
77979;BME280;67169;50.268;8.694;2023-08-17T03:45:08;99825.88;;;15.10;100.00
77979;BME280;67169;50.268;8.694;2023-08-17T03:47:35;99830.78;;;15.04;100.00
77979;BME280;67169;50.268;8.694;2023-08-17T03:50:02;99829.56;;;15.09;100.00
77979;BME280;67169;50.268;8.694;2023-08-17T03:52:28;99830.78;;;15.04;100.00
77979;BME280;67169;50.268;8.694;2023-08-17T03:54:55;99831.81;;;15.01;100.00
77979;BME280;67169;50.268;8.694;2023-08-17T03:57:23;99839.31;;;14.96;100.00
77979;BME280;67169;50.268;8.694;2023-08-17T03:59:49;99831.50;;;14.90;100.00
77979;BME280;67169;50.268;8.694;2023-08-17T04:02:16;99843.56;;;14.84;100.00
77979;BME280;67169;50.268;8.694;2023-08-17T04:04:42;99839.91;;;14.85;100.00
77979;BME280;67169;50.268;8.694;2023-08-17T04:07:09;99839.84;;;14.87;100.00
77979;BME280;67169;50.268;8.694;2023-08-17T04:09:35;99840.16;;;14.81;100.00
77979;BME280;67169;50.268;8.694;2023-08-17T04:12:02;99839.28;;;14.80;100.00
77979;BME280;67169;50.268;8.694;2023-08-17T04:14:32;99853.44;;;14.85;100.00
77979;BME280;67169;50.268;8.694;2023-08-17T04:16:59;99848.03;;;14.85;100.00
77979;BME280;67169;50.268;8.694;2023-08-17T04:19:25;99848.03;;;14.85;100.00
77979;BME280;67169;50.268;8.694;2023-08-17T04:21:52;99831.41;;;14.76;100.00
77979;BME280;67169;50.268;8.694;2023-08-17T04:24:19;99851.97;;;14.80;100.00
77979;BME280;67169;50.268;8.694;2023-08-17T04:26:45;99855.69;;;14.77;100.00
77979;BME280;67169;50.268;8.694;2023-08-17T04:29:13;99849.72;;;14.70;100.00
77979;BME280;67169;50.268;8.694;2023-08-17T04:31:40;99859.81;;;14.84;100.00
77979;BME280;67169;50.268;8.694;2023-08-17T04:34:07;99844.16;;;14.74;100.00
77979;BME280;67169;50.268;8.694;2023-08-17T04:36:34;99859.00;;;14.82;100.00
77979;BME280;67169;50.268;8.694;2023-08-17T04:39:00;99856.16;;;14.85;100.00
77979;BME280;67169;50.268;8.694;2023-08-17T04:41:27;99859.56;;;14.89;100.00
77979;BME280;67169;50.268;8.694;2023-08-17T04:43:53;99859.41;;;14.92;100.00
77979;BME280;67169;50.268;8.694;2023-08-17T04:46:20;99871.97;;;14.93;100.00
77979;BME280;67169;50.268;8.694;2023-08-17T04:48:48;99871.66;;;14.99;100.00
77979;BME280;67169;50.268;8.694;2023-08-17T04:51:15;99865.25;;;15.00;100.00
77979;BME280;67169;50.268;8.694;2023-08-17T04:53:41;99858.22;;;15.13;100.00
77979;BME280;67169;50.268;8.694;2023-08-17T04:56:08;99868.56;;;15.23;100.00
77979;BME280;67169;50.268;8.694;2023-08-17T04:58:34;99874.06;;;15.37;100.00
77979;BME280;67169;50.268;8.694;2023-08-17T05:01:01;99869.44;;;15.39;100.00
77979;BME280;67169;50.268;8.694;2023-08-17T05:03:28;99869.44;;;15.39;100.00
77979;BME280;67169;50.268;8.694;2023-08-17T05:05:57;99871.72;;;15.47;100.00
77979;BME280;67169;50.268;8.694;2023-08-17T05:08:24;99850.91;;;15.47;100.00
77979;BME280;67169;50.268;8.694;2023-08-17T05:10:50;99866.81;;;15.53;100.00
77979;BME280;67169;50.268;8.694;2023-08-17T05:13:17;99866.38;;;15.61;100.00
77979;BME280;67169;50.268;8.694;2023-08-17T05:15:44;99877.16;;;15.62;100.00
77979;BME280;67169;50.268;8.694;2023-08-17T05:18:10;99874.34;;;15.64;100.00
77979;BME280;67169;50.268;8.694;2023-08-17T05:20:37;99878.47;;;15.71;100.00
77979;BME280;67169;50.268;8.694;2023-08-17T05:23:05;99873.47;;;15.79;100.00
77979;BME280;67169;50.268;8.694;2023-08-17T05:25:31;99840.50;;;15.55;100.00
77979;BME280;67169;50.268;8.694;2023-08-17T05:27:58;99879.97;;;15.77;100.00
77979;BME280;67169;50.268;8.694;2023-08-17T05:30:24;99876.53;;;15.89;100.00
77979;BME280;67169;50.268;8.694;2023-08-17T05:32:51;99884.03;;;16.16;100.00
77979;BME280;67169;50.268;8.694;2023-08-17T05:35:18;99885.19;;;16.11;100.00
77979;BME280;67169;50.268;8.694;2023-08-17T05:37:44;99877.56;;;16.18;100.00
77979;BME280;67169;50.268;8.694;2023-08-17T05:40:12;99888.81;;;16.26;100.00
77979;BME280;67169;50.268;8.694;2023-08-17T05:42:39;99886.31;;;16.37;100.00
77979;BME280;67169;50.268;8.694;2023-08-17T05:45:07;99888.00;;;16.40;100.00
77979;BME280;67169;50.268;8.694;2023-08-17T05:47:34;99891.22;;;16.47;100.00
77979;BME280;67169;50.268;8.694;2023-08-17T05:50:00;99891.41;;;16.44;100.00
77979;BME280;67169;50.268;8.694;2023-08-17T05:52:27;99890.34;;;16.46;100.00
77979;BME280;67169;50.268;8.694;2023-08-17T05:54:54;99900.03;;;16.50;100.00
77979;BME280;67169;50.268;8.694;2023-08-17T05:57:21;99907.22;;;16.51;100.00
77979;BME280;67169;50.268;8.694;2023-08-17T05:59:48;99905.28;;;16.53;100.00
77979;BME280;67169;50.268;8.694;2023-08-17T06:02:15;99911.91;;;16.64;100.00
77979;BME280;67169;50.268;8.694;2023-08-17T06:04:42;99903.06;;;16.76;100.00
77979;BME280;67169;50.268;8.694;2023-08-17T06:07:08;99908.59;;;16.89;100.00
77979;BME280;67169;50.268;8.694;2023-08-17T06:09:35;99902.50;;;16.99;100.00
77979;BME280;67169;50.268;8.694;2023-08-17T06:12:01;99904.47;;;17.12;100.00
77979;BME280;67169;50.268;8.694;2023-08-17T06:14:29;99897.09;;;17.14;100.00
77979;BME280;67169;50.268;8.694;2023-08-17T06:16:56;99899.41;;;17.20;100.00
77979;BME280;67169;50.268;8.694;2023-08-17T06:19:22;99898.03;;;17.27;100.00
77979;BME280;67169;50.268;8.694;2023-08-17T06:21:49;99906.09;;;17.28;100.00
77979;BME280;67169;50.268;8.694;2023-08-17T06:24:15;99902.22;;;17.32;100.00
77979;BME280;67169;50.268;8.694;2023-08-17T06:26:43;99907.53;;;17.34;100.00
77979;BME280;67169;50.268;8.694;2023-08-17T06:29:09;99893.38;;;17.43;100.00
77979;BME280;67169;50.268;8.694;2023-08-17T06:31:37;99907.34;;;17.51;100.00
77979;BME280;67169;50.268;8.694;2023-08-17T06:34:04;99905.56;;;17.65;100.00
77979;BME280;67169;50.268;8.694;2023-08-17T06:36:31;99904.81;;;17.63;100.00
77979;BME280;67169;50.268;8.694;2023-08-17T06:38:58;99908.59;;;17.60;100.00
77979;BME280;67169;50.268;8.694;2023-08-17T06:41:25;99906.66;;;17.76;100.00
77979;BME280;67169;50.268;8.694;2023-08-17T06:43:52;99906.72;;;17.75;100.00
77979;BME280;67169;50.268;8.694;2023-08-17T06:46:18;99909.06;;;17.81;100.00
77979;BME280;67169;50.268;8.694;2023-08-17T06:48:46;99901.59;;;17.85;100.00
77979;BME280;67169;50.268;8.694;2023-08-17T06:51:13;99896.53;;;17.78;100.00
77979;BME280;67169;50.268;8.694;2023-08-17T06:53:40;99900.72;;;17.84;100.00
77979;BME280;67169;50.268;8.694;2023-08-17T06:56:09;99899.19;;;17.80;100.00
77979;BME280;67169;50.268;8.694;2023-08-17T06:58:35;99905.59;;;17.79;100.00
77979;BME280;67169;50.268;8.694;2023-08-17T07:01:02;99903.25;;;17.87;100.00
77979;BME280;67169;50.268;8.694;2023-08-17T07:03:28;99896.41;;;17.94;100.00
77979;BME280;67169;50.268;8.694;2023-08-17T07:05:56;99894.25;;;17.99;100.00
77979;BME280;67169;50.268;8.694;2023-08-17T07:08:23;99900.25;;;18.05;100.00
77979;BME280;67169;50.268;8.694;2023-08-17T07:10:50;99904.44;;;18.10;100.00
77979;BME280;67169;50.268;8.694;2023-08-17T07:13:16;99903.72;;;18.21;100.00
77979;BME280;67169;50.268;8.694;2023-08-17T07:15:43;99902.13;;;18.31;100.00
77979;BME280;67169;50.268;8.694;2023-08-17T07:18:09;99903.44;;;18.38;100.00
77979;BME280;67169;50.268;8.694;2023-08-17T07:20:36;99900.19;;;18.46;100.00
77979;BME280;67169;50.268;8.694;2023-08-17T07:23:04;99906.00;;;18.67;100.00
77979;BME280;67169;50.268;8.694;2023-08-17T07:25:31;99910.84;;;18.76;100.00
77979;BME280;67169;50.268;8.694;2023-08-17T07:27:58;99914.34;;;18.91;100.00
77979;BME280;67169;50.268;8.694;2023-08-17T07:30:24;99901.59;;;18.91;100.00
77979;BME280;67169;50.268;8.694;2023-08-17T07:32:51;99905.75;;;18.97;100.00
77979;BME280;67169;50.268;8.694;2023-08-17T07:35:18;99903.13;;;18.95;100.00
77979;BME280;67169;50.268;8.694;2023-08-17T07:37:44;99899.66;;;18.93;100.00
77979;BME280;67169;50.268;8.694;2023-08-17T07:40:12;99903.69;;;19.01;100.00
77979;BME280;67169;50.268;8.694;2023-08-17T07:42:39;99900.53;;;19.07;100.00
77979;BME280;67169;50.268;8.694;2023-08-17T07:45:06;99901.81;;;19.01;100.00
77979;BME280;67169;50.268;8.694;2023-08-17T07:47:33;99911.66;;;19.04;100.00
77979;BME280;67169;50.268;8.694;2023-08-17T07:50:00;99910.00;;;19.01;100.00
77979;BME280;67169;50.268;8.694;2023-08-17T07:52:27;99928.63;;;19.20;100.00
77979;BME280;67169;50.268;8.694;2023-08-17T07:54:53;99924.38;;;19.29;100.00
77979;BME280;67169;50.268;8.694;2023-08-17T07:57:26;99925.47;;;19.26;100.00
77979;BME280;67169;50.268;8.694;2023-08-17T07:59:53;99922.53;;;19.42;100.00
77979;BME280;67169;50.268;8.694;2023-08-17T08:02:20;99923.91;;;19.60;100.00
77979;BME280;67169;50.268;8.694;2023-08-17T08:04:46;99923.31;;;19.94;100.00
77979;BME280;67169;50.268;8.694;2023-08-17T08:07:13;99917.97;;;20.16;100.00
77979;BME280;67169;50.268;8.694;2023-08-17T08:09:39;99916.38;;;20.61;96.89
77979;BME280;67169;50.268;8.694;2023-08-17T08:12:06;99913.34;;;20.89;92.25
77979;BME280;67169;50.268;8.694;2023-08-17T08:14:35;99913.16;;;21.14;92.02
77979;BME280;67169;50.268;8.694;2023-08-17T08:17:01;99911.84;;;21.42;92.77
77979;BME280;67169;50.268;8.694;2023-08-17T08:19:28;99914.56;;;21.76;91.96
77979;BME280;67169;50.268;8.694;2023-08-17T08:21:54;99910.16;;;22.07;91.78
77979;BME280;67169;50.268;8.694;2023-08-17T08:24:21;99907.47;;;21.96;85.52
77979;BME280;67169;50.268;8.694;2023-08-17T08:26:48;99904.78;;;20.82;88.97
77979;BME280;67169;50.268;8.694;2023-08-17T08:29:16;99914.22;;;20.30;89.98
77979;BME280;67169;50.268;8.694;2023-08-17T08:31:44;99905.69;;;20.34;92.09
77979;BME280;67169;50.268;8.694;2023-08-17T08:34:10;99903.81;;;20.59;92.18
77979;BME280;67169;50.268;8.694;2023-08-17T08:36:37;99901.91;;;20.83;92.45
77979;BME280;67169;50.268;8.694;2023-08-17T08:39:04;99913.38;;;20.65;91.62
77979;BME280;67169;50.268;8.694;2023-08-17T08:41:31;99898.00;;;20.75;90.47
77979;BME280;67169;50.268;8.694;2023-08-17T08:43:58;99906.34;;;20.73;89.73
77979;BME280;67169;50.268;8.694;2023-08-17T08:46:26;99900.41;;;20.79;89.97
77979;BME280;67169;50.268;8.694;2023-08-17T08:48:57;99911.91;;;21.07;87.98
77979;BME280;67169;50.268;8.694;2023-08-17T08:51:27;99896.06;;;21.35;86.37
77979;BME280;67169;50.268;8.694;2023-08-17T08:54:00;99907.97;;;21.56;85.75
77979;BME280;67169;50.268;8.694;2023-08-17T08:56:31;99904.25;;;21.68;85.48
77979;BME280;67169;50.268;8.694;2023-08-17T08:58:59;99882.84;;;21.62;84.82
77979;BME280;67169;50.268;8.694;2023-08-17T09:01:28;99896.75;;;21.93;84.72
77979;BME280;67169;50.268;8.694;2023-08-17T09:03:58;99884.50;;;22.19;84.22
77979;BME280;67169;50.268;8.694;2023-08-17T09:06:26;99886.59;;;22.80;83.18
77979;BME280;67169;50.268;8.694;2023-08-17T09:08:53;99849.41;;;22.66;80.78
77979;BME280;67169;50.268;8.694;2023-08-17T09:11:20;99892.00;;;22.70;79.11
77979;BME280;67169;50.268;8.694;2023-08-17T09:13:46;99893.00;;;22.16;80.58
77979;BME280;67169;50.268;8.694;2023-08-17T09:16:13;99866.94;;;22.54;79.88
77979;BME280;67169;50.268;8.694;2023-08-17T09:18:40;99882.03;;;22.48;81.75
77979;BME280;67169;50.268;8.694;2023-08-17T09:21:08;99881.03;;;22.17;80.56
77979;BME280;67169;50.268;8.694;2023-08-17T09:23:34;99860.91;;;21.85;82.12
77979;BME280;67169;50.268;8.694;2023-08-17T09:26:08;99870.41;;;22.98;84.27
77979;BME280;67169;50.268;8.694;2023-08-17T09:28:38;99868.66;;;23.49;77.50
77979;BME280;67169;50.268;8.694;2023-08-17T09:31:05;99865.19;;;22.74;78.16
77979;BME280;67169;50.268;8.694;2023-08-17T09:33:32;99864.91;;;22.77;78.95
77979;BME280;67169;50.268;8.694;2023-08-17T09:35:59;99862.00;;;23.82;78.02
77979;BME280;67169;50.268;8.694;2023-08-17T09:38:27;99862.09;;;24.30;74.61
77979;BME280;67169;50.268;8.694;2023-08-17T09:40:54;99869.44;;;24.10;75.48
77979;BME280;67169;50.268;8.694;2023-08-17T09:43:21;99873.59;;;24.05;71.90
77979;BME280;67169;50.268;8.694;2023-08-17T09:45:48;99867.41;;;23.62;74.48
77979;BME280;67169;50.268;8.694;2023-08-17T09:48:16;99870.44;;;24.29;71.65
77979;BME280;67169;50.268;8.694;2023-08-17T09:50:44;99860.81;;;24.54;73.41
77979;BME280;67169;50.268;8.694;2023-08-17T09:53:12;99852.22;;;24.86;71.98
77979;BME280;67169;50.268;8.694;2023-08-17T09:55:40;99849.59;;;24.94;69.00
77979;BME280;67169;50.268;8.694;2023-08-17T09:58:07;99852.03;;;25.17;74.07
77979;BME280;67169;50.268;8.694;2023-08-17T10:00:34;99847.53;;;25.53;70.00
77979;BME280;67169;50.268;8.694;2023-08-17T10:03:02;99830.94;;;25.35;70.91
77979;BME280;67169;50.268;8.694;2023-08-17T10:05:31;99840.81;;;25.28;71.75
77979;BME280;67169;50.268;8.694;2023-08-17T10:08:02;99848.41;;;25.06;73.75
77979;BME280;67169;50.268;8.694;2023-08-17T10:10:31;99843.78;;;24.97;74.88
77979;BME280;67169;50.268;8.694;2023-08-17T10:13:08;99837.50;;;24.48;76.14
77979;BME280;67169;50.268;8.694;2023-08-17T10:15:37;99833.13;;;24.36;74.87
77979;BME280;67169;50.268;8.694;2023-08-17T10:18:14;99829.13;;;24.40;75.11
77979;BME280;67169;50.268;8.694;2023-08-17T10:20:48;99831.59;;;25.09;75.24
77979;BME280;67169;50.268;8.694;2023-08-17T10:23:19;99822.56;;;25.92;70.88
77979;BME280;67169;50.268;8.694;2023-08-17T10:25:49;99827.03;;;26.82;70.48
77979;BME280;67169;50.268;8.694;2023-08-17T10:28:19;99832.63;;;27.16;66.70
77979;BME280;67169;50.268;8.694;2023-08-17T10:30:46;99835.19;;;26.30;68.27
77979;BME280;67169;50.268;8.694;2023-08-17T10:33:14;99836.75;;;26.33;70.49
77979;BME280;67169;50.268;8.694;2023-08-17T10:35:42;99835.22;;;27.18;69.56
77979;BME280;67169;50.268;8.694;2023-08-17T10:38:10;99821.72;;;27.41;66.47
77979;BME280;67169;50.268;8.694;2023-08-17T10:40:39;99831.06;;;27.48;67.21
77979;BME280;67169;50.268;8.694;2023-08-17T10:43:05;99826.41;;;27.49;66.88
77979;BME280;67169;50.268;8.694;2023-08-17T10:45:34;99831.94;;;27.49;66.53
77979;BME280;67169;50.268;8.694;2023-08-17T10:48:24;99823.31;;;27.17;68.58
77979;BME280;67169;50.268;8.694;2023-08-17T10:50:59;99824.72;;;27.21;68.69
77979;BME280;67169;50.268;8.694;2023-08-17T10:53:27;99831.56;;;27.43;64.90
77979;BME280;67169;50.268;8.694;2023-08-17T10:55:57;99838.94;;;28.20;65.63
77979;BME280;67169;50.268;8.694;2023-08-17T10:58:24;99834.03;;;27.97;64.37
77979;BME280;67169;50.268;8.694;2023-08-17T11:00:55;99833.91;;;27.73;65.14
77979;BME280;67169;50.268;8.694;2023-08-17T11:03:22;99834.34;;;27.78;63.75
77979;BME280;67169;50.268;8.694;2023-08-17T11:05:50;99831.91;;;28.58;62.84
77979;BME280;67169;50.268;8.694;2023-08-17T11:08:23;99823.91;;;28.96;61.12
77979;BME280;67169;50.268;8.694;2023-08-17T11:10:58;99825.94;;;28.04;63.03
77979;BME280;67169;50.268;8.694;2023-08-17T11:13:27;99835.09;;;27.28;64.54
77979;BME280;67169;50.268;8.694;2023-08-17T11:15:57;99833.78;;;27.74;63.70
77979;BME280;67169;50.268;8.694;2023-08-17T11:18:24;99829.53;;;27.96;64.33
77979;BME280;67169;50.268;8.694;2023-08-17T11:20:51;99835.97;;;28.21;65.68
77979;BME280;67169;50.268;8.694;2023-08-17T11:23:18;99831.84;;;28.09;65.24
77979;BME280;67169;50.268;8.694;2023-08-17T11:25:44;99823.25;;;28.85;62.92
77979;BME280;67169;50.268;8.694;2023-08-17T11:28:11;99830.53;;;28.70;62.22
77979;BME280;67169;50.268;8.694;2023-08-17T11:30:40;99816.81;;;29.09;60.55
77979;BME280;67169;50.268;8.694;2023-08-17T11:33:09;99832.81;;;29.63;60.57
77979;BME280;67169;50.268;8.694;2023-08-17T11:35:36;99819.41;;;29.19;61.35
77979;BME280;67169;50.268;8.694;2023-08-17T11:38:04;99826.81;;;29.27;60.11
77979;BME280;67169;50.268;8.694;2023-08-17T11:40:32;99828.38;;;29.21;62.79
77979;BME280;67169;50.268;8.694;2023-08-17T11:42:59;99825.69;;;29.05;61.83
77979;BME280;67169;50.268;8.694;2023-08-17T11:45:26;99815.72;;;29.83;58.24
77979;BME280;67169;50.268;8.694;2023-08-17T11:47:52;99810.38;;;29.73;61.08
77979;BME280;67169;50.268;8.694;2023-08-17T11:50:20;99810.75;;;29.14;60.78
77979;BME280;67169;50.268;8.694;2023-08-17T11:52:47;99809.38;;;29.10;59.95
77979;BME280;67169;50.268;8.694;2023-08-17T11:55:16;99802.78;;;29.11;61.14
77979;BME280;67169;50.268;8.694;2023-08-17T11:57:45;99795.22;;;29.05;61.13
77979;BME280;67169;50.268;8.694;2023-08-17T12:00:17;99766.47;;;28.90;62.16
77979;BME280;67169;50.268;8.694;2023-08-17T12:02:47;99808.28;;;29.36;61.02
77979;BME280;67169;50.268;8.694;2023-08-17T12:05:20;99799.28;;;29.33;59.60
77979;BME280;67169;50.268;8.694;2023-08-17T12:07:48;99796.47;;;29.42;59.35
77979;BME280;67169;50.268;8.694;2023-08-17T12:10:15;99788.22;;;29.25;60.20
77979;BME280;67169;50.268;8.694;2023-08-17T12:12:41;99784.50;;;29.49;60.11
77979;BME280;67169;50.268;8.694;2023-08-17T12:15:10;99795.56;;;29.89;58.97
77979;BME280;67169;50.268;8.694;2023-08-17T12:17:43;99796.34;;;30.06;59.58
77979;BME280;67169;50.268;8.694;2023-08-17T12:20:15;99796.66;;;29.79;58.60
77979;BME280;67169;50.268;8.694;2023-08-17T12:22:43;99790.59;;;29.84;59.06
77979;BME280;67169;50.268;8.694;2023-08-17T12:25:10;99793.41;;;29.20;59.55
77979;BME280;67169;50.268;8.694;2023-08-17T12:27:36;99790.50;;;29.22;59.81
77979;BME280;67169;50.268;8.694;2023-08-17T12:30:04;99789.66;;;29.05;59.91
77979;BME280;67169;50.268;8.694;2023-08-17T12:32:31;99780.63;;;29.19;60.94
77979;BME280;67169;50.268;8.694;2023-08-17T12:34:57;99782.19;;;29.14;60.90
77979;BME280;67169;50.268;8.694;2023-08-17T12:37:24;99785.47;;;29.25;60.17
77979;BME280;67169;50.268;8.694;2023-08-17T12:39:52;99785.16;;;29.12;59.34
77979;BME280;67169;50.268;8.694;2023-08-17T12:42:19;99783.25;;;29.52;59.87
77979;BME280;67169;50.268;8.694;2023-08-17T12:44:45;99790.06;;;30.81;56.67
77979;BME280;67169;50.268;8.694;2023-08-17T12:47:12;99796.56;;;30.50;56.77
77979;BME280;67169;50.268;8.694;2023-08-17T12:49:38;99789.47;;;30.24;57.19
77979;BME280;67169;50.268;8.694;2023-08-17T12:52:05;99789.59;;;30.00;57.58
77979;BME280;67169;50.268;8.694;2023-08-17T12:54:31;99793.06;;;30.02;58.64